KLM68J EDDM-EHAM
Flight info
| Callsign | KLM68J |
|---|---|
| Flight time | 1h 6m |
| Altitude | 34000 |
| Route | INPUD2N/26R INPUD Y102 BOREP/N0463F360 Y102 ALIBU DCT MASEK L604 BIGGE T281 NORKU |
| Aircraft | B739/M-SDE2E3FGIJ1RWYZ/LB1 |
Departure
| Time | 2026-05-07 13:47 |
|---|---|
| Airport | Munich Airport (EDDM) |
Arrival
| Time | 2026-05-07 14:53 |
|---|---|
| Airport | Amsterdam Airport Schiphol (EHAM) |
| Time | Latitude | Longitude | Altitude | Speed | Heading |
|---|---|---|---|---|---|
| 2026-05-07 13:23 | 48.35130 | 11.78336 | 1484 ft | 0 kts | 83° |
| 2026-05-07 13:34 | 48.35130 | 11.78333 | 1484 ft | 2 kts | 83° |
| 2026-05-07 13:35 | 48.35126 | 11.78294 | 1471 ft | 4 kts | 77° |
| 2026-05-07 13:35 | 48.35118 | 11.78256 | 1484 ft | 4 kts | 62° |
| 2026-05-07 13:35 | 48.35103 | 11.78228 | 1484 ft | 4 kts | 15° |
| 2026-05-07 13:35 | 48.35095 | 11.78226 | 1484 ft | 0 kts | 354° |
| 2026-05-07 13:38 | 48.35097 | 11.78226 | 1477 ft | 2 kts | 359° |
| 2026-05-07 13:38 | 48.35140 | 11.78231 | 1484 ft | 11 kts | 1° |
| 2026-05-07 13:38 | 48.35202 | 11.78152 | 1484 ft | 15 kts | 272° |
| 2026-05-07 13:38 | 48.35191 | 11.78004 | 1484 ft | 14 kts | 263° |
| 2026-05-07 13:39 | 48.35194 | 11.77865 | 1484 ft | 13 kts | 307° |
| 2026-05-07 13:39 | 48.35279 | 11.77830 | 1484 ft | 13 kts | 351° |
| 2026-05-07 13:39 | 48.35367 | 11.77815 | 1484 ft | 13 kts | 353° |
| 2026-05-07 13:39 | 48.35465 | 11.77798 | 1477 ft | 16 kts | 353° |
| 2026-05-07 13:40 | 48.35589 | 11.77777 | 1481 ft | 20 kts | 353° |
| 2026-05-07 13:40 | 48.35734 | 11.77746 | 1484 ft | 21 kts | 341° |
| 2026-05-07 13:40 | 48.35876 | 11.77692 | 1484 ft | 21 kts | 353° |
| 2026-05-07 13:40 | 48.36017 | 11.77666 | 1481 ft | 20 kts | 354° |
| 2026-05-07 13:41 | 48.36086 | 11.77813 | 1476 ft | 20 kts | 83° |
| 2026-05-07 13:41 | 48.36105 | 11.78051 | 1484 ft | 26 kts | 84° |
| 2026-05-07 13:41 | 48.36126 | 11.78339 | 1484 ft | 28 kts | 83° |
| 2026-05-07 13:41 | 48.36148 | 11.78619 | 1484 ft | 26 kts | 84° |
| 2026-05-07 13:42 | 48.36168 | 11.78882 | 1484 ft | 24 kts | 83° |
| 2026-05-07 13:42 | 48.36188 | 11.79127 | 1474 ft | 23 kts | 83° |
| 2026-05-07 13:42 | 48.36206 | 11.79362 | 1484 ft | 22 kts | 83° |
| 2026-05-07 13:42 | 48.36224 | 11.79590 | 1484 ft | 22 kts | 83° |
| 2026-05-07 13:43 | 48.36243 | 11.79812 | 1484 ft | 21 kts | 84° |
| 2026-05-07 13:43 | 48.36258 | 11.80027 | 1480 ft | 20 kts | 83° |
| 2026-05-07 13:43 | 48.36273 | 11.80236 | 1480 ft | 20 kts | 83° |
| 2026-05-07 13:43 | 48.36289 | 11.80438 | 1484 ft | 19 kts | 82° |
| 2026-05-07 13:44 | 48.36303 | 11.80638 | 1479 ft | 21 kts | 84° |
| 2026-05-07 13:44 | 48.36323 | 11.80893 | 1474 ft | 27 kts | 84° |
| 2026-05-07 13:44 | 48.36345 | 11.81175 | 1474 ft | 26 kts | 84° |
| 2026-05-07 13:44 | 48.36365 | 11.81435 | 1484 ft | 25 kts | 83° |
| 2026-05-07 13:45 | 48.36384 | 11.81682 | 1474 ft | 23 kts | 84° |
| 2026-05-07 13:45 | 48.36398 | 11.81910 | 1480 ft | 19 kts | 85° |
| 2026-05-07 13:45 | 48.36496 | 11.81994 | 1484 ft | 18 kts | 357° |
| 2026-05-07 13:45 | 48.36618 | 11.81970 | 1480 ft | 17 kts | 345° |
| 2026-05-07 13:46 | 48.36666 | 11.81820 | 1479 ft | 19 kts | 265° |
| 2026-05-07 13:46 | 48.36631 | 11.81360 | 1484 ft | 82 kts | 263° |
| 2026-05-07 13:46 | 48.36537 | 11.80152 | 1476 ft | 148 kts | 263° |
| 2026-05-07 13:46 | 48.36416 | 11.78394 | 1768 ft | 177 kts | 265° |
| 2026-05-07 13:47 | 48.36283 | 11.76512 | 2536 ft | 182 kts | 264° |
| 2026-05-07 13:47 | 48.36092 | 11.74627 | 3397 ft | 184 kts | 263° |
| 2026-05-07 13:47 | 48.35894 | 11.72668 | 3864 ft | 200 kts | 263° |
| 2026-05-07 13:47 | 48.35732 | 11.70501 | 4251 ft | 217 kts | 265° |
| 2026-05-07 13:48 | 48.35745 | 11.68172 | 4782 ft | 229 kts | 283° |
| 2026-05-07 13:48 | 48.36477 | 11.65928 | 5187 ft | 253 kts | 310° |
| 2026-05-07 13:48 | 48.37921 | 11.64291 | 5834 ft | 267 kts | 333° |
| 2026-05-07 13:48 | 48.39735 | 11.63615 | 6780 ft | 270 kts | 351° |
| 2026-05-07 13:49 | 48.41622 | 11.63298 | 7586 ft | 276 kts | 351° |
| 2026-05-07 13:49 | 48.43542 | 11.62983 | 8400 ft | 279 kts | 351° |
| 2026-05-07 13:49 | 48.45500 | 11.62661 | 9150 ft | 285 kts | 351° |
| 2026-05-07 13:49 | 48.47488 | 11.62331 | 9931 ft | 289 kts | 351° |
| 2026-05-07 13:50 | 48.49498 | 11.61988 | 10682 ft | 293 kts | 349° |
| 2026-05-07 13:50 | 48.51528 | 11.61299 | 11083 ft | 310 kts | 339° |
| 2026-05-07 13:50 | 48.53633 | 11.60177 | 11273 ft | 332 kts | 336° |
| 2026-05-07 13:50 | 48.55846 | 11.58889 | 11662 ft | 347 kts | 336° |
| 2026-05-07 13:51 | 48.58097 | 11.57572 | 12309 ft | 352 kts | 336° |
| 2026-05-07 13:51 | 48.60397 | 11.56244 | 13061 ft | 355 kts | 336° |
| 2026-05-07 13:51 | 48.62717 | 11.54923 | 13735 ft | 359 kts | 336° |
| 2026-05-07 13:51 | 48.65074 | 11.53598 | 14418 ft | 362 kts | 336° |
| 2026-05-07 13:52 | 48.67452 | 11.52272 | 15107 ft | 365 kts | 337° |
| 2026-05-07 13:52 | 48.69844 | 11.50943 | 15766 ft | 368 kts | 337° |
| 2026-05-07 13:52 | 48.72268 | 11.49598 | 16323 ft | 373 kts | 337° |
| 2026-05-07 13:52 | 48.74723 | 11.48237 | 16950 ft | 376 kts | 337° |
| 2026-05-07 13:53 | 48.77158 | 11.46886 | 17579 ft | 379 kts | 337° |
| 2026-05-07 13:53 | 48.79646 | 11.45505 | 18168 ft | 382 kts | 337° |
| 2026-05-07 13:53 | 48.82152 | 11.44112 | 18743 ft | 386 kts | 337° |
| 2026-05-07 13:53 | 48.84684 | 11.42704 | 19309 ft | 389 kts | 337° |
| 2026-05-07 13:54 | 48.87239 | 11.41282 | 19887 ft | 392 kts | 337° |
| 2026-05-07 13:54 | 48.89813 | 11.39847 | 20432 ft | 396 kts | 337° |
| 2026-05-07 13:54 | 48.92406 | 11.38400 | 20989 ft | 398 kts | 337° |
| 2026-05-07 13:54 | 48.95021 | 11.36937 | 21519 ft | 402 kts | 337° |
| 2026-05-07 13:55 | 48.97658 | 11.35460 | 22023 ft | 405 kts | 337° |
| 2026-05-07 13:55 | 49.00320 | 11.33969 | 22535 ft | 408 kts | 337° |
| 2026-05-07 13:55 | 49.02993 | 11.32470 | 23043 ft | 411 kts | 337° |
| 2026-05-07 13:55 | 49.05681 | 11.30961 | 23512 ft | 414 kts | 337° |
| 2026-05-07 13:56 | 49.08393 | 11.29437 | 23985 ft | 416 kts | 337° |
| 2026-05-07 13:56 | 49.11126 | 11.27898 | 24448 ft | 419 kts | 337° |
| 2026-05-07 13:56 | 49.13871 | 11.26351 | 24891 ft | 423 kts | 337° |
| 2026-05-07 13:56 | 49.16650 | 11.24784 | 25310 ft | 426 kts | 337° |
| 2026-05-07 13:57 | 49.19405 | 11.23231 | 25717 ft | 429 kts | 338° |
| 2026-05-07 13:57 | 49.22212 | 11.21643 | 26117 ft | 432 kts | 338° |
| 2026-05-07 13:57 | 49.25039 | 11.20047 | 26513 ft | 434 kts | 338° |
| 2026-05-07 13:57 | 49.27887 | 11.18439 | 26916 ft | 436 kts | 338° |
| 2026-05-07 13:58 | 49.29780 | 11.17370 | 27162 ft | 438 kts | 338° |
| 2026-05-07 13:58 | 49.32653 | 11.15744 | 27512 ft | 441 kts | 338° |
| 2026-05-07 13:58 | 49.35544 | 11.14106 | 27866 ft | 444 kts | 338° |
| 2026-05-07 13:58 | 49.38448 | 11.12460 | 28233 ft | 446 kts | 338° |
| 2026-05-07 13:59 | 49.41368 | 11.10801 | 28593 ft | 448 kts | 338° |
| 2026-05-07 13:59 | 49.44298 | 11.09134 | 28920 ft | 451 kts | 338° |
| 2026-05-07 13:59 | 49.47259 | 11.07448 | 29240 ft | 453 kts | 338° |
| 2026-05-07 13:59 | 49.50223 | 11.05759 | 29556 ft | 455 kts | 338° |
| 2026-05-07 14:00 | 49.53167 | 11.03952 | 29865 ft | 456 kts | 333° |
| 2026-05-07 14:00 | 49.55938 | 11.01566 | 30145 ft | 457 kts | 327° |
| 2026-05-07 14:00 | 49.58634 | 10.98961 | 30508 ft | 457 kts | 326° |
| 2026-05-07 14:00 | 49.61306 | 10.96337 | 30931 ft | 455 kts | 326° |
| 2026-05-07 14:01 | 49.63985 | 10.93733 | 31324 ft | 454 kts | 326° |
| 2026-05-07 14:01 | 49.66643 | 10.91187 | 31641 ft | 455 kts | 327° |
| 2026-05-07 14:01 | 49.69344 | 10.88627 | 31957 ft | 455 kts | 327° |
| 2026-05-07 14:01 | 49.72046 | 10.86076 | 32310 ft | 455 kts | 327° |
| 2026-05-07 14:02 | 49.74745 | 10.83523 | 32663 ft | 454 kts | 327° |
| 2026-05-07 14:02 | 49.77436 | 10.80977 | 32987 ft | 454 kts | 327° |
| 2026-05-07 14:02 | 49.80139 | 10.78424 | 33293 ft | 454 kts | 327° |
| 2026-05-07 14:02 | 49.82834 | 10.75878 | 33618 ft | 453 kts | 327° |
| 2026-05-07 14:03 | 49.85489 | 10.73365 | 33927 ft | 452 kts | 326° |
| 2026-05-07 14:03 | 49.88186 | 10.70809 | 34194 ft | 453 kts | 326° |
| 2026-05-07 14:03 | 49.90876 | 10.68252 | 34447 ft | 453 kts | 326° |
| 2026-05-07 14:03 | 49.93562 | 10.65698 | 34737 ft | 452 kts | 326° |
| 2026-05-07 14:04 | 49.96244 | 10.63144 | 35012 ft | 452 kts | 326° |
| 2026-05-07 14:04 | 49.98921 | 10.60582 | 35246 ft | 452 kts | 326° |
| 2026-05-07 14:04 | 50.01601 | 10.58002 | 35462 ft | 453 kts | 326° |
| 2026-05-07 14:04 | 50.04274 | 10.55420 | 35714 ft | 452 kts | 326° |
| 2026-05-07 14:05 | 50.06945 | 10.52838 | 35950 ft | 452 kts | 326° |
| 2026-05-07 14:05 | 50.12314 | 10.47642 | 36036 ft | 457 kts | 326° |
| 2026-05-07 14:06 | 50.17736 | 10.42383 | 36031 ft | 458 kts | 326° |
| 2026-05-07 14:06 | 50.23145 | 10.37133 | 36051 ft | 457 kts | 326° |
| 2026-05-07 14:07 | 50.28513 | 10.31935 | 36046 ft | 455 kts | 326° |
| 2026-05-07 14:07 | 50.33892 | 10.26713 | 36036 ft | 454 kts | 326° |
| 2026-05-07 14:08 | 50.38986 | 10.20923 | 36045 ft | 450 kts | 312° |
| 2026-05-07 14:08 | 50.43135 | 10.13581 | 36051 ft | 449 kts | 309° |
| 2026-05-07 14:09 | 50.47185 | 10.06193 | 36036 ft | 449 kts | 309° |
| 2026-05-07 14:09 | 50.51297 | 9.98774 | 36057 ft | 450 kts | 309° |
| 2026-05-07 14:10 | 50.55433 | 9.91352 | 36051 ft | 451 kts | 309° |
| 2026-05-07 14:10 | 50.59576 | 9.83910 | 36047 ft | 452 kts | 309° |
| 2026-05-07 14:11 | 50.63719 | 9.76439 | 36050 ft | 453 kts | 309° |
| 2026-05-07 14:11 | 50.67836 | 9.68993 | 36051 ft | 453 kts | 309° |
| 2026-05-07 14:12 | 50.71977 | 9.61483 | 36046 ft | 453 kts | 309° |
| 2026-05-07 14:12 | 50.76058 | 9.53894 | 36039 ft | 452 kts | 308° |
| 2026-05-07 14:13 | 50.80050 | 9.46201 | 36056 ft | 452 kts | 308° |
| 2026-05-07 14:13 | 50.84027 | 9.38517 | 36052 ft | 451 kts | 308° |
| 2026-05-07 14:14 | 50.87990 | 9.30875 | 36037 ft | 451 kts | 308° |
| 2026-05-07 14:14 | 50.91965 | 9.23197 | 36053 ft | 450 kts | 308° |
| 2026-05-07 14:15 | 50.95932 | 9.15513 | 36043 ft | 450 kts | 308° |
| 2026-05-07 14:15 | 50.99891 | 9.07822 | 36045 ft | 449 kts | 308° |
| 2026-05-07 14:16 | 51.03838 | 9.00131 | 36036 ft | 449 kts | 308° |
| 2026-05-07 14:16 | 51.07782 | 8.92424 | 36044 ft | 449 kts | 308° |
| 2026-05-07 14:17 | 51.11720 | 8.84707 | 36036 ft | 449 kts | 308° |
| 2026-05-07 14:17 | 51.15645 | 8.76985 | 36048 ft | 448 kts | 308° |
| 2026-05-07 14:18 | 51.19561 | 8.69245 | 36056 ft | 448 kts | 308° |
| 2026-05-07 14:18 | 51.23446 | 8.61540 | 36058 ft | 448 kts | 308° |
| 2026-05-07 14:19 | 51.27356 | 8.53766 | 36058 ft | 449 kts | 308° |
| 2026-05-07 14:19 | 51.31259 | 8.45985 | 36061 ft | 449 kts | 308° |
| 2026-05-07 14:20 | 51.35665 | 8.38914 | 36074 ft | 450 kts | 319° |
| 2026-05-07 14:20 | 51.40511 | 8.32507 | 36067 ft | 451 kts | 319° |
| 2026-05-07 14:21 | 51.45339 | 8.26096 | 36064 ft | 451 kts | 319° |
| 2026-05-07 14:21 | 51.50110 | 8.19661 | 36069 ft | 450 kts | 319° |
| 2026-05-07 14:22 | 51.54891 | 8.13158 | 36073 ft | 450 kts | 319° |
| 2026-05-07 14:22 | 51.59671 | 8.06636 | 36074 ft | 450 kts | 319° |
| 2026-05-07 14:23 | 51.64445 | 8.00107 | 36077 ft | 450 kts | 319° |
| 2026-05-07 14:23 | 51.69192 | 7.93591 | 36073 ft | 450 kts | 319° |
| 2026-05-07 14:24 | 51.73956 | 7.87037 | 36073 ft | 450 kts | 319° |
| 2026-05-07 14:24 | 51.78718 | 7.80472 | 36075 ft | 450 kts | 319° |
| 2026-05-07 14:25 | 51.83476 | 7.73888 | 36074 ft | 449 kts | 319° |
| 2026-05-07 14:25 | 51.87885 | 7.66774 | 36081 ft | 447 kts | 308° |
| 2026-05-07 14:26 | 51.91730 | 7.58847 | 36075 ft | 447 kts | 307° |
| 2026-05-07 14:26 | 51.95567 | 7.50893 | 36072 ft | 447 kts | 307° |
| 2026-05-07 14:26 | 51.97506 | 7.46918 | 35736 ft | 454 kts | 307° |
| 2026-05-07 14:27 | 51.99291 | 7.42765 | 35218 ft | 453 kts | 298° |
| 2026-05-07 14:27 | 52.00693 | 7.38217 | 34748 ft | 446 kts | 295° |
| 2026-05-07 14:27 | 52.01983 | 7.33656 | 34236 ft | 441 kts | 294° |
| 2026-05-07 14:27 | 52.03237 | 7.29131 | 33612 ft | 439 kts | 294° |
| 2026-05-07 14:28 | 52.04494 | 7.24604 | 32873 ft | 439 kts | 294° |
| 2026-05-07 14:28 | 52.05766 | 7.20069 | 32031 ft | 442 kts | 294° |
| 2026-05-07 14:28 | 52.07053 | 7.15527 | 31319 ft | 441 kts | 295° |
| 2026-05-07 14:28 | 52.08335 | 7.11027 | 30823 ft | 435 kts | 295° |
| 2026-05-07 14:29 | 52.09598 | 7.06603 | 30333 ft | 429 kts | 295° |
| 2026-05-07 14:29 | 52.10850 | 7.02225 | 29785 ft | 425 kts | 295° |
| 2026-05-07 14:29 | 52.12093 | 6.97877 | 29200 ft | 422 kts | 294° |
| 2026-05-07 14:29 | 52.13309 | 6.93616 | 28612 ft | 419 kts | 294° |
| 2026-05-07 14:30 | 52.14531 | 6.89326 | 28035 ft | 416 kts | 294° |
| 2026-05-07 14:30 | 52.15742 | 6.85062 | 27493 ft | 412 kts | 294° |
| 2026-05-07 14:30 | 52.16940 | 6.80838 | 26944 ft | 409 kts | 294° |
| 2026-05-07 14:30 | 52.18128 | 6.76641 | 26394 ft | 406 kts | 294° |
| 2026-05-07 14:31 | 52.19305 | 6.72474 | 25859 ft | 402 kts | 294° |
| 2026-05-07 14:31 | 52.20470 | 6.68344 | 25330 ft | 399 kts | 294° |
| 2026-05-07 14:31 | 52.21624 | 6.64245 | 24793 ft | 396 kts | 294° |
| 2026-05-07 14:31 | 52.22754 | 6.60226 | 24249 ft | 393 kts | 294° |
| 2026-05-07 14:32 | 52.23887 | 6.56186 | 23736 ft | 390 kts | 294° |
| 2026-05-07 14:32 | 52.25008 | 6.52183 | 23218 ft | 386 kts | 294° |
| 2026-05-07 14:32 | 52.26122 | 6.48197 | 22709 ft | 383 kts | 294° |
| 2026-05-07 14:32 | 52.27224 | 6.44248 | 22203 ft | 380 kts | 294° |
| 2026-05-07 14:33 | 52.28310 | 6.40345 | 21696 ft | 377 kts | 294° |
| 2026-05-07 14:33 | 52.29390 | 6.36461 | 21197 ft | 374 kts | 294° |
| 2026-05-07 14:33 | 52.30461 | 6.32605 | 20705 ft | 371 kts | 294° |
| 2026-05-07 14:33 | 52.31521 | 6.28782 | 20230 ft | 367 kts | 294° |
| 2026-05-07 14:34 | 52.32573 | 6.24987 | 19750 ft | 364 kts | 293° |
| 2026-05-07 14:34 | 52.33613 | 6.21221 | 19270 ft | 362 kts | 293° |
| 2026-05-07 14:34 | 52.34645 | 6.17477 | 18781 ft | 359 kts | 293° |
| 2026-05-07 14:34 | 52.35568 | 6.13767 | 18413 ft | 353 kts | 285° |
| 2026-05-07 14:35 | 52.35982 | 6.09872 | 18173 ft | 345 kts | 274° |
| 2026-05-07 14:35 | 52.35999 | 6.05956 | 17937 ft | 345 kts | 268° |
| 2026-05-07 14:35 | 52.35929 | 6.01995 | 17693 ft | 351 kts | 268° |
| 2026-05-07 14:35 | 52.35847 | 5.97988 | 17447 ft | 353 kts | 268° |
| 2026-05-07 14:36 | 52.35766 | 5.93985 | 17192 ft | 350 kts | 268° |
| 2026-05-07 14:36 | 52.35690 | 5.90010 | 16935 ft | 349 kts | 268° |
| 2026-05-07 14:36 | 52.35616 | 5.86048 | 16686 ft | 347 kts | 268° |
| 2026-05-07 14:36 | 52.35544 | 5.82097 | 16435 ft | 346 kts | 268° |
| 2026-05-07 14:37 | 52.35474 | 5.78222 | 16185 ft | 345 kts | 268° |
| 2026-05-07 14:37 | 52.35332 | 5.70374 | 15693 ft | 344 kts | 268° |
| 2026-05-07 14:37 | 52.35259 | 5.66463 | 15439 ft | 343 kts | 268° |
| 2026-05-07 14:38 | 52.35186 | 5.62565 | 15182 ft | 343 kts | 268° |
| 2026-05-07 14:38 | 52.35112 | 5.58669 | 14940 ft | 342 kts | 268° |
| 2026-05-07 14:38 | 52.35037 | 5.54786 | 14688 ft | 341 kts | 268° |
| 2026-05-07 14:38 | 52.34961 | 5.50909 | 14438 ft | 340 kts | 268° |
| 2026-05-07 14:39 | 52.34883 | 5.47040 | 14188 ft | 340 kts | 268° |
| 2026-05-07 14:39 | 52.34806 | 5.43179 | 13938 ft | 339 kts | 268° |
| 2026-05-07 14:39 | 52.34728 | 5.39389 | 13690 ft | 338 kts | 268° |
| 2026-05-07 14:39 | 52.34648 | 5.35552 | 13433 ft | 337 kts | 268° |
| 2026-05-07 14:40 | 52.34566 | 5.31728 | 13114 ft | 336 kts | 268° |
| 2026-05-07 14:40 | 52.34484 | 5.27936 | 12690 ft | 332 kts | 268° |
| 2026-05-07 14:40 | 52.34401 | 5.24176 | 12236 ft | 330 kts | 268° |
| 2026-05-07 14:40 | 52.34318 | 5.20434 | 11788 ft | 328 kts | 268° |
| 2026-05-07 14:41 | 52.34234 | 5.16718 | 11336 ft | 326 kts | 268° |
| 2026-05-07 14:41 | 52.34149 | 5.13020 | 10886 ft | 324 kts | 268° |
| 2026-05-07 14:41 | 52.34065 | 5.09347 | 10469 ft | 322 kts | 268° |
| 2026-05-07 14:41 | 52.33980 | 5.05763 | 10341 ft | 310 kts | 268° |
| 2026-05-07 14:42 | 52.33898 | 5.02301 | 10189 ft | 299 kts | 268° |
| 2026-05-07 14:42 | 52.33817 | 4.98964 | 10038 ft | 289 kts | 268° |
| 2026-05-07 14:42 | 52.33737 | 4.95672 | 9688 ft | 288 kts | 268° |
| 2026-05-07 14:42 | 52.33657 | 4.92417 | 9361 ft | 286 kts | 268° |
| 2026-05-07 14:43 | 52.33576 | 4.89172 | 9034 ft | 285 kts | 268° |
| 2026-05-07 14:43 | 52.33498 | 4.86003 | 8789 ft | 279 kts | 268° |
| 2026-05-07 14:43 | 52.33418 | 4.82875 | 8657 ft | 270 kts | 268° |
| 2026-05-07 14:43 | 52.33341 | 4.79858 | 8517 ft | 262 kts | 268° |
| 2026-05-07 14:44 | 52.33264 | 4.76932 | 8405 ft | 253 kts | 268° |
| 2026-05-07 14:44 | 52.32968 | 4.74152 | 8212 ft | 247 kts | 252° |
| 2026-05-07 14:44 | 52.32612 | 4.72388 | 8001 ft | 248 kts | 252° |
| 2026-05-07 14:44 | 52.32075 | 4.69704 | 7685 ft | 248 kts | 252° |
| 2026-05-07 14:45 | 52.31541 | 4.67030 | 7412 ft | 247 kts | 252° |
| 2026-05-07 14:45 | 52.31011 | 4.64372 | 7137 ft | 245 kts | 252° |
| 2026-05-07 14:45 | 52.30480 | 4.61724 | 6838 ft | 245 kts | 252° |
| 2026-05-07 14:45 | 52.29778 | 4.58232 | 6472 ft | 242 kts | 252° |
| 2026-05-07 14:46 | 52.29425 | 4.56479 | 6277 ft | 239 kts | 252° |
| 2026-05-07 14:46 | 52.28907 | 4.53905 | 5897 ft | 238 kts | 252° |
| 2026-05-07 14:46 | 52.28396 | 4.51366 | 5495 ft | 238 kts | 252° |
| 2026-05-07 14:46 | 52.27879 | 4.48807 | 5095 ft | 237 kts | 252° |
| 2026-05-07 14:47 | 52.27362 | 4.46254 | 4699 ft | 236 kts | 252° |
| 2026-05-07 14:47 | 52.26838 | 4.43689 | 4437 ft | 238 kts | 251° |
| 2026-05-07 14:47 | 52.26045 | 4.41383 | 4196 ft | 235 kts | 222° |
| 2026-05-07 14:47 | 52.24581 | 4.40297 | 3836 ft | 236 kts | 182° |
| 2026-05-07 14:48 | 52.23031 | 4.40932 | 3528 ft | 232 kts | 148° |
| 2026-05-07 14:48 | 52.21779 | 4.42563 | 3207 ft | 231 kts | 123° |
| 2026-05-07 14:48 | 52.21210 | 4.44972 | 2923 ft | 227 kts | 102° |
| 2026-05-07 14:48 | 52.20854 | 4.47407 | 2862 ft | 214 kts | 102° |
| 2026-05-07 14:49 | 52.20509 | 4.49708 | 2680 ft | 204 kts | 101° |
| 2026-05-07 14:49 | 52.20511 | 4.51882 | 2521 ft | 187 kts | 65° |
| 2026-05-07 14:49 | 52.21249 | 4.53550 | 2229 ft | 180 kts | 52° |
| 2026-05-07 14:49 | 52.21913 | 4.55298 | 2054 ft | 184 kts | 59° |
| 2026-05-07 14:50 | 52.22573 | 4.57122 | 2012 ft | 186 kts | 57° |
| 2026-05-07 14:50 | 52.23246 | 4.58904 | 1991 ft | 183 kts | 57° |
| 2026-05-07 14:50 | 52.23912 | 4.60655 | 1821 ft | 182 kts | 57° |
| 2026-05-07 14:50 | 52.24556 | 4.62342 | 1618 ft | 167 kts | 57° |
| 2026-05-07 14:51 | 52.25142 | 4.63876 | 1400 ft | 154 kts | 57° |
| 2026-05-07 14:51 | 52.25701 | 4.65354 | 1150 ft | 151 kts | 57° |
| 2026-05-07 14:51 | 52.26255 | 4.66829 | 985 ft | 153 kts | 56° |
| 2026-05-07 14:51 | 52.26819 | 4.68295 | 774 ft | 152 kts | 57° |
| 2026-05-07 14:52 | 52.27382 | 4.69789 | 576 ft | 154 kts | 57° |
| 2026-05-07 14:52 | 52.27954 | 4.71251 | 380 ft | 151 kts | 56° |
| 2026-05-07 14:52 | 52.28518 | 4.72684 | 192 ft | 149 kts | 57° |
| 2026-05-07 14:52 | 52.29071 | 4.74134 | 22 ft | 151 kts | 57° |
| 2026-05-07 14:53 | 52.29532 | 4.75339 | -3 ft | 124 kts | 58° |
| 2026-05-07 14:53 | 52.29937 | 4.76394 | -5 ft | 83 kts | 57° |
| 2026-05-07 14:53 | 52.30169 | 4.76995 | -4 ft | 42 kts | 58° |
| 2026-05-07 14:53 | 52.30285 | 4.77260 | -5 ft | 25 kts | 44° |
| 2026-05-07 14:54 | 52.30426 | 4.77403 | -3 ft | 19 kts | 23° |
| 2026-05-07 14:54 | 52.30528 | 4.77408 | -2 ft | 14 kts | 30° |
| 2026-05-07 14:54 | 52.30591 | 4.77507 | -2 ft | 12 kts | 9° |
| 2026-05-07 14:54 | 52.30631 | 4.77409 | -2 ft | 12 kts | 257° |
| 2026-05-07 14:55 | 52.30589 | 4.77288 | -2 ft | 14 kts | 237° |
| 2026-05-07 14:55 | 52.30535 | 4.77147 | -2 ft | 15 kts | 238° |
| 2026-05-07 14:55 | 52.30482 | 4.77008 | -2 ft | 14 kts | 238° |
| 2026-05-07 14:55 | 52.30430 | 4.76875 | -2 ft | 14 kts | 238° |
| 2026-05-07 14:56 | 52.30382 | 4.76751 | -2 ft | 13 kts | 237° |
| 2026-05-07 14:56 | 52.30376 | 4.76651 | -2 ft | 10 kts | 327° |
| 2026-05-07 14:56 | 52.30416 | 4.76657 | -2 ft | 4 kts | 26° |
| 2026-05-07 14:56 | 52.30432 | 4.76670 | -2 ft | 0 kts | 27° |